sensor_id;sensor_type;location;lat;lon;timestamp;P1;durP1;ratioP1;P2;durP2;ratioP2
7887;SDS011;3989;48.810;9.208;2022-07-25T00:00:36;9.35;;;8.55;;
7887;SDS011;3989;48.810;9.208;2022-07-25T00:03:05;8.90;;;8.10;;
7887;SDS011;3989;48.810;9.208;2022-07-25T00:05:32;9.45;;;8.60;;
7887;SDS011;3989;48.810;9.208;2022-07-25T00:07:59;9.35;;;8.45;;
7887;SDS011;3989;48.810;9.208;2022-07-25T00:10:26;9.57;;;8.88;;
7887;SDS011;3989;48.810;9.208;2022-07-25T00:12:52;9.13;;;8.23;;
7887;SDS011;3989;48.810;9.208;2022-07-25T00:15:19;8.77;;;8.05;;
7887;SDS011;3989;48.810;9.208;2022-07-25T00:17:47;9.25;;;8.52;;
7887;SDS011;3989;48.810;9.208;2022-07-25T00:20:23;9.45;;;8.55;;
7887;SDS011;3989;48.810;9.208;2022-07-25T00:22:51;8.88;;;8.05;;
7887;SDS011;3989;48.810;9.208;2022-07-25T00:25:18;9.75;;;8.80;;
7887;SDS011;3989;48.810;9.208;2022-07-25T00:27:45;9.18;;;8.38;;
7887;SDS011;3989;48.810;9.208;2022-07-25T00:30:12;9.38;;;8.57;;
7887;SDS011;3989;48.810;9.208;2022-07-25T00:32:39;9.25;;;8.23;;
7887;SDS011;3989;48.810;9.208;2022-07-25T00:35:07;9.63;;;7.82;;
7887;SDS011;3989;48.810;9.208;2022-07-25T00:37:34;9.43;;;8.48;;
7887;SDS011;3989;48.810;9.208;2022-07-25T00:40:00;9.18;;;8.10;;
7887;SDS011;3989;48.810;9.208;2022-07-25T00:42:27;10.77;;;9.15;;
7887;SDS011;3989;48.810;9.208;2022-07-25T00:44:54;8.98;;;8.15;;
7887;SDS011;3989;48.810;9.208;2022-07-25T00:47:21;9.20;;;8.15;;
7887;SDS011;3989;48.810;9.208;2022-07-25T00:49:48;9.70;;;8.70;;
7887;SDS011;3989;48.810;9.208;2022-07-25T00:52:16;9.35;;;8.15;;
7887;SDS011;3989;48.810;9.208;2022-07-25T00:54:43;9.23;;;8.35;;
7887;SDS011;3989;48.810;9.208;2022-07-25T00:57:09;8.55;;;7.78;;
7887;SDS011;3989;48.810;9.208;2022-07-25T00:59:36;9.13;;;8.25;;
7887;SDS011;3989;48.810;9.208;2022-07-25T01:02:03;8.73;;;7.90;;
7887;SDS011;3989;48.810;9.208;2022-07-25T01:04:29;9.50;;;8.75;;
7887;SDS011;3989;48.810;9.208;2022-07-25T01:06:56;8.55;;;7.78;;
7887;SDS011;3989;48.810;9.208;2022-07-25T01:09:25;9.73;;;8.82;;
7887;SDS011;3989;48.810;9.208;2022-07-25T01:11:52;8.68;;;7.88;;
7887;SDS011;3989;48.810;9.208;2022-07-25T01:14:20;10.77;;;8.52;;
7887;SDS011;3989;48.810;9.208;2022-07-25T01:16:47;8.70;;;7.90;;
7887;SDS011;3989;48.810;9.208;2022-07-25T01:19:13;8.98;;;8.18;;
7887;SDS011;3989;48.810;9.208;2022-07-25T01:21:41;8.20;;;7.40;;
7887;SDS011;3989;48.810;9.208;2022-07-25T01:24:08;9.27;;;8.35;;
7887;SDS011;3989;48.810;9.208;2022-07-25T01:26:36;8.85;;;8.00;;
7887;SDS011;3989;48.810;9.208;2022-07-25T01:29:03;9.30;;;8.52;;
7887;SDS011;3989;48.810;9.208;2022-07-25T01:31:30;8.80;;;8.00;;
7887;SDS011;3989;48.810;9.208;2022-07-25T01:33:56;8.80;;;7.82;;
7887;SDS011;3989;48.810;9.208;2022-07-25T01:36:23;10.82;;;8.48;;
7887;SDS011;3989;48.810;9.208;2022-07-25T01:38:51;8.52;;;7.82;;
7887;SDS011;3989;48.810;9.208;2022-07-25T01:41:18;8.95;;;8.18;;
7887;SDS011;3989;48.810;9.208;2022-07-25T01:43:45;8.90;;;8.15;;
7887;SDS011;3989;48.810;9.208;2022-07-25T01:46:12;9.23;;;8.45;;
7887;SDS011;3989;48.810;9.208;2022-07-25T01:48:39;9.20;;;8.05;;
7887;SDS011;3989;48.810;9.208;2022-07-25T01:51:06;9.50;;;8.70;;
7887;SDS011;3989;48.810;9.208;2022-07-25T01:53:34;8.73;;;7.45;;
7887;SDS011;3989;48.810;9.208;2022-07-25T01:56:03;8.38;;;7.68;;
7887;SDS011;3989;48.810;9.208;2022-07-25T01:58:29;9.23;;;8.43;;
7887;SDS011;3989;48.810;9.208;2022-07-25T02:00:56;8.40;;;7.57;;
7887;SDS011;3989;48.810;9.208;2022-07-25T02:03:23;8.80;;;8.05;;
7887;SDS011;3989;48.810;9.208;2022-07-25T02:05:56;9.68;;;8.88;;
7887;SDS011;3989;48.810;9.208;2022-07-25T02:08:23;8.52;;;7.72;;
7887;SDS011;3989;48.810;9.208;2022-07-25T02:10:50;8.93;;;8.13;;
7887;SDS011;3989;48.810;9.208;2022-07-25T02:13:19;9.80;;;8.20;;
7887;SDS011;3989;48.810;9.208;2022-07-25T02:15:46;8.43;;;7.72;;
7887;SDS011;3989;48.810;9.208;2022-07-25T02:18:13;7.95;;;7.35;;
7887;SDS011;3989;48.810;9.208;2022-07-25T02:20:39;8.20;;;7.55;;
7887;SDS011;3989;48.810;9.208;2022-07-25T02:23:06;8.30;;;7.60;;
7887;SDS011;3989;48.810;9.208;2022-07-25T02:25:33;8.73;;;8.02;;
7887;SDS011;3989;48.810;9.208;2022-07-25T02:28:00;8.40;;;7.70;;
7887;SDS011;3989;48.810;9.208;2022-07-25T02:30:28;8.30;;;7.55;;
7887;SDS011;3989;48.810;9.208;2022-07-25T02:32:54;9.93;;;8.02;;
7887;SDS011;3989;48.810;9.208;2022-07-25T02:35:21;9.07;;;8.27;;
7887;SDS011;3989;48.810;9.208;2022-07-25T02:37:48;9.18;;;8.32;;
7887;SDS011;3989;48.810;9.208;2022-07-25T02:40:14;9.10;;;8.35;;
7887;SDS011;3989;48.810;9.208;2022-07-25T02:42:41;9.43;;;8.52;;
7887;SDS011;3989;48.810;9.208;2022-07-25T02:45:08;8.95;;;8.13;;
7887;SDS011;3989;48.810;9.208;2022-07-25T02:47:36;9.75;;;8.25;;
7887;SDS011;3989;48.810;9.208;2022-07-25T02:50:03;9.02;;;8.23;;
7887;SDS011;3989;48.810;9.208;2022-07-25T02:52:31;8.73;;;7.93;;
7887;SDS011;3989;48.810;9.208;2022-07-25T02:54:58;9.80;;;8.88;;
7887;SDS011;3989;48.810;9.208;2022-07-25T02:57:24;8.90;;;8.10;;
7887;SDS011;3989;48.810;9.208;2022-07-25T02:59:51;9.57;;;8.48;;
7887;SDS011;3989;48.810;9.208;2022-07-25T03:02:18;10.18;;;8.52;;
7887;SDS011;3989;48.810;9.208;2022-07-25T03:04:46;9.40;;;8.45;;
7887;SDS011;3989;48.810;9.208;2022-07-25T03:07:13;9.15;;;8.25;;
7887;SDS011;3989;48.810;9.208;2022-07-25T03:09:39;10.15;;;9.10;;
7887;SDS011;3989;48.810;9.208;2022-07-25T03:12:06;9.05;;;8.25;;
7887;SDS011;3989;48.810;9.208;2022-07-25T03:14:33;8.68;;;7.88;;
7887;SDS011;3989;48.810;9.208;2022-07-25T03:16:59;9.75;;;8.85;;
7887;SDS011;3989;48.810;9.208;2022-07-25T03:19:26;8.50;;;7.80;;
7887;SDS011;3989;48.810;9.208;2022-07-25T03:21:54;9.93;;;8.73;;
7887;SDS011;3989;48.810;9.208;2022-07-25T03:24:21;8.63;;;7.82;;
7887;SDS011;3989;48.810;9.208;2022-07-25T03:26:47;10.82;;;8.90;;
7887;SDS011;3989;48.810;9.208;2022-07-25T03:29:14;8.77;;;8.07;;
7887;SDS011;3989;48.810;9.208;2022-07-25T03:31:41;9.00;;;8.15;;
7887;SDS011;3989;48.810;9.208;2022-07-25T03:34:07;8.57;;;7.82;;
7887;SDS011;3989;48.810;9.208;2022-07-25T03:36:34;11.07;;;8.82;;
7887;SDS011;3989;48.810;9.208;2022-07-25T03:39:02;9.27;;;8.48;;
7887;SDS011;3989;48.810;9.208;2022-07-25T03:41:29;8.85;;;8.15;;
7887;SDS011;3989;48.810;9.208;2022-07-25T03:43:55;9.50;;;8.68;;
7887;SDS011;3989;48.810;9.208;2022-07-25T03:46:22;9.20;;;8.40;;
7887;SDS011;3989;48.810;9.208;2022-07-25T03:48:49;10.18;;;8.98;;
7887;SDS011;3989;48.810;9.208;2022-07-25T03:51:15;9.32;;;8.43;;
7887;SDS011;3989;48.810;9.208;2022-07-25T03:53:42;9.13;;;8.32;;
7887;SDS011;3989;48.810;9.208;2022-07-25T03:56:28;9.65;;;8.77;;
7887;SDS011;3989;48.810;9.208;2022-07-25T03:58:55;9.35;;;8.45;;
7887;SDS011;3989;48.810;9.208;2022-07-25T04:01:21;10.57;;;9.57;;
7887;SDS011;3989;48.810;9.208;2022-07-25T04:03:48;9.90;;;9.00;;
7887;SDS011;3989;48.810;9.208;2022-07-25T04:06:15;8.65;;;7.95;;
7887;SDS011;3989;48.810;9.208;2022-07-25T04:08:42;9.15;;;8.35;;
7887;SDS011;3989;48.810;9.208;2022-07-25T04:11:08;8.30;;;7.60;;
7887;SDS011;3989;48.810;9.208;2022-07-25T04:13:36;9.45;;;7.72;;
7887;SDS011;3989;48.810;9.208;2022-07-25T04:16:03;9.88;;;8.88;;
7887;SDS011;3989;48.810;9.208;2022-07-25T04:18:30;9.90;;;8.90;;
7887;SDS011;3989;48.810;9.208;2022-07-25T04:20:57;9.63;;;8.73;;
7887;SDS011;3989;48.810;9.208;2022-07-25T04:23:24;10.13;;;9.00;;
7887;SDS011;3989;48.810;9.208;2022-07-25T04:25:50;10.70;;;7.95;;
7887;SDS011;3989;48.810;9.208;2022-07-25T04:28:17;9.80;;;8.90;;
7887;SDS011;3989;48.810;9.208;2022-07-25T04:30:45;9.55;;;8.65;;
7887;SDS011;3989;48.810;9.208;2022-07-25T04:33:12;9.25;;;8.45;;
7887;SDS011;3989;48.810;9.208;2022-07-25T04:35:39;9.63;;;8.63;;
7887;SDS011;3989;48.810;9.208;2022-07-25T04:38:06;10.02;;;8.57;;
7887;SDS011;3989;48.810;9.208;2022-07-25T04:40:32;8.63;;;7.80;;
7887;SDS011;3989;48.810;9.208;2022-07-25T04:42:59;9.40;;;8.43;;
7887;SDS011;3989;48.810;9.208;2022-07-25T04:45:26;9.80;;;8.73;;
7887;SDS011;3989;48.810;9.208;2022-07-25T04:47:54;9.18;;;8.23;;
7887;SDS011;3989;48.810;9.208;2022-07-25T04:50:21;8.88;;;8.07;;
7887;SDS011;3989;48.810;9.208;2022-07-25T04:52:48;10.52;;;8.30;;
7887;SDS011;3989;48.810;9.208;2022-07-25T04:55:15;9.32;;;8.15;;
7887;SDS011;3989;48.810;9.208;2022-07-25T04:57:41;9.10;;;8.40;;
7887;SDS011;3989;48.810;9.208;2022-07-25T05:00:09;8.55;;;7.75;;
7887;SDS011;3989;48.810;9.208;2022-07-25T05:02:36;9.05;;;8.35;;
7887;SDS011;3989;48.810;9.208;2022-07-25T05:05:05;9.10;;;8.00;;
7887;SDS011;3989;48.810;9.208;2022-07-25T05:07:32;8.80;;;8.10;;
7887;SDS011;3989;48.810;9.208;2022-07-25T05:09:59;9.43;;;7.90;;
7887;SDS011;3989;48.810;9.208;2022-07-25T05:12:26;9.02;;;8.23;;
7887;SDS011;3989;48.810;9.208;2022-07-25T05:14:52;8.32;;;7.63;;
7887;SDS011;3989;48.810;9.208;2022-07-25T05:17:19;8.60;;;7.82;;
7887;SDS011;3989;48.810;9.208;2022-07-25T05:19:46;9.02;;;8.23;;
7887;SDS011;3989;48.810;9.208;2022-07-25T05:22:14;8.85;;;7.97;;
7887;SDS011;3989;48.810;9.208;2022-07-25T05:24:41;8.25;;;7.55;;
7887;SDS011;3989;48.810;9.208;2022-07-25T05:27:07;9.13;;;8.27;;
7887;SDS011;3989;48.810;9.208;2022-07-25T05:29:34;11.32;;;8.63;;
7887;SDS011;3989;48.810;9.208;2022-07-25T05:32:00;9.43;;;8.43;;
7887;SDS011;3989;48.810;9.208;2022-07-25T05:34:27;9.52;;;7.88;;
7887;SDS011;3989;48.810;9.208;2022-07-25T05:36:54;9.35;;;8.55;;
7887;SDS011;3989;48.810;9.208;2022-07-25T05:39:22;10.80;;;8.48;;
7887;SDS011;3989;48.810;9.208;2022-07-25T05:41:48;8.85;;;7.95;;
7887;SDS011;3989;48.810;9.208;2022-07-25T05:44:15;9.63;;;8.63;;
7887;SDS011;3989;48.810;9.208;2022-07-25T05:46:41;8.70;;;7.90;;
7887;SDS011;3989;48.810;9.208;2022-07-25T05:49:08;10.02;;;9.02;;
7887;SDS011;3989;48.810;9.208;2022-07-25T05:51:35;11.38;;;8.82;;
7887;SDS011;3989;48.810;9.208;2022-07-25T05:54:01;10.32;;;8.82;;
7887;SDS011;3989;48.810;9.208;2022-07-25T05:56:29;10.82;;;9.18;;
7887;SDS011;3989;48.810;9.208;2022-07-25T05:58:56;10.15;;;9.20;;
7887;SDS011;3989;48.810;9.208;2022-07-25T06:01:22;9.52;;;8.63;;
7887;SDS011;3989;48.810;9.208;2022-07-25T06:03:49;9.68;;;8.25;;
7887;SDS011;3989;48.810;9.208;2022-07-25T06:06:16;9.43;;;8.52;;
7887;SDS011;3989;48.810;9.208;2022-07-25T06:08:42;9.45;;;8.07;;
7887;SDS011;3989;48.810;9.208;2022-07-25T06:11:09;10.00;;;9.10;;
7887;SDS011;3989;48.810;9.208;2022-07-25T06:13:37;9.40;;;8.43;;
7887;SDS011;3989;48.810;9.208;2022-07-25T06:16:04;9.68;;;8.65;;
7887;SDS011;3989;48.810;9.208;2022-07-25T06:18:31;8.70;;;7.90;;
7887;SDS011;3989;48.810;9.208;2022-07-25T06:20:57;8.32;;;7.63;;
7887;SDS011;3989;48.810;9.208;2022-07-25T06:23:24;9.00;;;8.32;;
7887;SDS011;3989;48.810;9.208;2022-07-25T06:25:51;9.13;;;8.32;;
7887;SDS011;3989;48.810;9.208;2022-07-25T06:28:17;9.20;;;8.18;;
7887;SDS011;3989;48.810;9.208;2022-07-25T06:30:46;7.95;;;7.20;;
7887;SDS011;3989;48.810;9.208;2022-07-25T06:33:13;9.43;;;7.90;;
7887;SDS011;3989;48.810;9.208;2022-07-25T06:35:39;10.23;;;8.00;;
7887;SDS011;3989;48.810;9.208;2022-07-25T06:38:06;8.00;;;7.30;;
7887;SDS011;3989;48.810;9.208;2022-07-25T06:40:32;7.18;;;6.65;;
7887;SDS011;3989;48.810;9.208;2022-07-25T06:42:59;8.70;;;7.90;;
7887;SDS011;3989;48.810;9.208;2022-07-25T06:45:25;7.63;;;6.93;;
7887;SDS011;3989;48.810;9.208;2022-07-25T06:47:54;8.40;;;7.63;;
7887;SDS011;3989;48.810;9.208;2022-07-25T06:50:20;8.07;;;7.45;;
7887;SDS011;3989;48.810;9.208;2022-07-25T06:52:47;8.02;;;7.32;;
7887;SDS011;3989;48.810;9.208;2022-07-25T06:55:14;8.05;;;7.25;;
7887;SDS011;3989;48.810;9.208;2022-07-25T06:57:41;9.20;;;7.90;;
7887;SDS011;3989;48.810;9.208;2022-07-25T07:00:09;7.85;;;7.20;;
7887;SDS011;3989;48.810;9.208;2022-07-25T07:02:46;8.60;;;7.80;;
7887;SDS011;3989;48.810;9.208;2022-07-25T07:05:15;8.82;;;8.05;;
7887;SDS011;3989;48.810;9.208;2022-07-25T07:07:42;8.02;;;7.32;;
7887;SDS011;3989;48.810;9.208;2022-07-25T07:10:09;8.38;;;7.75;;
7887;SDS011;3989;48.810;9.208;2022-07-25T07:12:36;7.93;;;7.13;;
7887;SDS011;3989;48.810;9.208;2022-07-25T07:15:02;7.95;;;7.30;;
7887;SDS011;3989;48.810;9.208;2022-07-25T07:17:29;7.97;;;7.20;;
7887;SDS011;3989;48.810;9.208;2022-07-25T07:19:56;7.65;;;7.05;;
7887;SDS011;3989;48.810;9.208;2022-07-25T07:22:24;10.45;;;8.43;;
7887;SDS011;3989;48.810;9.208;2022-07-25T07:24:51;7.97;;;7.05;;
7887;SDS011;3989;48.810;9.208;2022-07-25T07:27:18;8.05;;;7.45;;
7887;SDS011;3989;48.810;9.208;2022-07-25T07:29:47;7.32;;;6.72;;
7887;SDS011;3989;48.810;9.208;2022-07-25T07:32:14;7.30;;;6.70;;
7887;SDS011;3989;48.810;9.208;2022-07-25T07:34:41;7.35;;;6.32;;
7887;SDS011;3989;48.810;9.208;2022-07-25T07:37:07;11.23;;;10.25;;
7887;SDS011;3989;48.810;9.208;2022-07-25T07:39:35;9.23;;;7.40;;
7887;SDS011;3989;48.810;9.208;2022-07-25T07:42:02;8.23;;;7.53;;
7887;SDS011;3989;48.810;9.208;2022-07-25T07:44:29;7.90;;;7.20;;
7887;SDS011;3989;48.810;9.208;2022-07-25T07:46:55;8.43;;;7.55;;
7887;SDS011;3989;48.810;9.208;2022-07-25T07:49:25;7.70;;;7.10;;
7887;SDS011;3989;48.810;9.208;2022-07-25T07:51:52;7.97;;;7.15;;
7887;SDS011;3989;48.810;9.208;2022-07-25T07:54:18;8.55;;;7.07;;
7887;SDS011;3989;48.810;9.208;2022-07-25T07:57:04;7.35;;;6.75;;
7887;SDS011;3989;48.810;9.208;2022-07-25T07:59:31;7.40;;;6.63;;
7887;SDS011;3989;48.810;9.208;2022-07-25T08:01:57;7.68;;;7.07;;
7887;SDS011;3989;48.810;9.208;2022-07-25T08:04:24;6.70;;;6.00;;
7887;SDS011;3989;48.810;9.208;2022-07-25T08:06:50;7.90;;;7.20;;
7887;SDS011;3989;48.810;9.208;2022-07-25T08:09:17;8.15;;;7.45;;
7887;SDS011;3989;48.810;9.208;2022-07-25T08:11:44;7.47;;;6.90;;
7887;SDS011;3989;48.810;9.208;2022-07-25T08:14:12;7.63;;;7.03;;
7887;SDS011;3989;48.810;9.208;2022-07-25T08:16:38;9.15;;;7.35;;
7887;SDS011;3989;48.810;9.208;2022-07-25T08:19:05;7.70;;;6.72;;
7887;SDS011;3989;48.810;9.208;2022-07-25T08:21:32;7.82;;;7.22;;
7887;SDS011;3989;48.810;9.208;2022-07-25T08:23:58;7.97;;;7.32;;
7887;SDS011;3989;48.810;9.208;2022-07-25T08:26:25;7.60;;;7.00;;
7887;SDS011;3989;48.810;9.208;2022-07-25T08:28:52;7.82;;;7.22;;
7887;SDS011;3989;48.810;9.208;2022-07-25T08:31:20;6.80;;;6.30;;
7887;SDS011;3989;48.810;9.208;2022-07-25T08:33:46;7.90;;;7.10;;
7887;SDS011;3989;48.810;9.208;2022-07-25T08:36:13;8.00;;;7.20;;
7887;SDS011;3989;48.810;9.208;2022-07-25T08:38:40;8.27;;;7.50;;
7887;SDS011;3989;48.810;9.208;2022-07-25T08:41:06;7.45;;;6.75;;
7887;SDS011;3989;48.810;9.208;2022-07-25T08:43:33;7.22;;;6.65;;
7887;SDS011;3989;48.810;9.208;2022-07-25T08:46:02;7.13;;;6.53;;
7887;SDS011;3989;48.810;9.208;2022-07-25T08:48:32;7.30;;;6.60;;
7887;SDS011;3989;48.810;9.208;2022-07-25T08:50:59;7.75;;;7.05;;
7887;SDS011;3989;48.810;9.208;2022-07-25T08:53:28;7.38;;;6.72;;
7887;SDS011;3989;48.810;9.208;2022-07-25T08:55:54;7.43;;;6.82;;
7887;SDS011;3989;48.810;9.208;2022-07-25T08:58:22;6.82;;;6.43;;
7887;SDS011;3989;48.810;9.208;2022-07-25T09:00:48;7.82;;;7.05;;
7887;SDS011;3989;48.810;9.208;2022-07-25T09:03:15;7.90;;;6.95;;
7887;SDS011;3989;48.810;9.208;2022-07-25T09:05:43;8.25;;;7.60;;
7887;SDS011;3989;48.810;9.208;2022-07-25T09:08:10;8.02;;;7.43;;
7887;SDS011;3989;48.810;9.208;2022-07-25T09:10:39;7.85;;;7.25;;
7887;SDS011;3989;48.810;9.208;2022-07-25T09:13:10;7.50;;;6.90;;
7887;SDS011;3989;48.810;9.208;2022-07-25T09:15:39;6.68;;;6.18;;
7887;SDS011;3989;48.810;9.208;2022-07-25T09:18:09;7.10;;;6.50;;
7887;SDS011;3989;48.810;9.208;2022-07-25T09:20:39;7.38;;;6.78;;
7887;SDS011;3989;48.810;9.208;2022-07-25T09:23:08;8.05;;;7.30;;
7887;SDS011;3989;48.810;9.208;2022-07-25T09:25:35;6.72;;;6.13;;
7887;SDS011;3989;48.810;9.208;2022-07-25T09:28:09;6.22;;;5.80;;
7887;SDS011;3989;48.810;9.208;2022-07-25T09:30:37;6.60;;;6.10;;
7887;SDS011;3989;48.810;9.208;2022-07-25T09:33:05;6.05;;;5.57;;
7887;SDS011;3989;48.810;9.208;2022-07-25T09:35:32;6.63;;;6.05;;
7887;SDS011;3989;48.810;9.208;2022-07-25T09:38:06;6.57;;;6.07;;
7887;SDS011;3989;48.810;9.208;2022-07-25T09:40:36;5.95;;;5.55;;
7887;SDS011;3989;48.810;9.208;2022-07-25T09:43:03;6.07;;;5.68;;
7887;SDS011;3989;48.810;9.208;2022-07-25T09:45:30;6.82;;;5.80;;
7887;SDS011;3989;48.810;9.208;2022-07-25T09:47:58;6.05;;;5.63;;
7887;SDS011;3989;48.810;9.208;2022-07-25T09:50:26;6.28;;;5.80;;
7887;SDS011;3989;48.810;9.208;2022-07-25T09:52:58;6.90;;;6.40;;
7887;SDS011;3989;48.810;9.208;2022-07-25T09:55:28;6.82;;;6.25;;
7887;SDS011;3989;48.810;9.208;2022-07-25T09:57:55;6.82;;;6.43;;
7887;SDS011;3989;48.810;9.208;2022-07-25T10:00:23;7.43;;;6.85;;
7887;SDS011;3989;48.810;9.208;2022-07-25T10:02:55;6.53;;;6.13;;
7887;SDS011;3989;48.810;9.208;2022-07-25T10:05:37;6.72;;;6.22;;
7887;SDS011;3989;48.810;9.208;2022-07-25T10:08:12;6.80;;;6.40;;
7887;SDS011;3989;48.810;9.208;2022-07-25T10:10:41;9.23;;;7.05;;
7887;SDS011;3989;48.810;9.208;2022-07-25T10:13:09;7.38;;;6.88;;
7887;SDS011;3989;48.810;9.208;2022-07-25T10:15:40;6.30;;;5.88;;
7887;SDS011;3989;48.810;9.208;2022-07-25T10:18:09;6.80;;;6.30;;
7887;SDS011;3989;48.810;9.208;2022-07-25T10:20:35;6.85;;;6.35;;
7887;SDS011;3989;48.810;9.208;2022-07-25T10:23:03;6.32;;;5.93;;
7887;SDS011;3989;48.810;9.208;2022-07-25T10:25:30;6.90;;;6.40;;
7887;SDS011;3989;48.810;9.208;2022-07-25T10:28:06;6.80;;;6.30;;
7887;SDS011;3989;48.810;9.208;2022-07-25T10:30:35;7.22;;;6.70;;
7887;SDS011;3989;48.810;9.208;2022-07-25T10:33:03;6.45;;;5.95;;
7887;SDS011;3989;48.810;9.208;2022-07-25T10:35:35;6.63;;;6.07;;
7887;SDS011;3989;48.810;9.208;2022-07-25T10:38:03;6.50;;;6.00;;
7887;SDS011;3989;48.810;9.208;2022-07-25T10:40:32;5.93;;;5.53;;
7887;SDS011;3989;48.810;9.208;2022-07-25T10:43:05;6.47;;;6.07;;
7887;SDS011;3989;48.810;9.208;2022-07-25T10:45:37;7.18;;;6.03;;
7887;SDS011;3989;48.810;9.208;2022-07-25T10:48:06;5.50;;;5.20;;
7887;SDS011;3989;48.810;9.208;2022-07-25T10:50:34;5.72;;;5.32;;
7887;SDS011;3989;48.810;9.208;2022-07-25T10:53:11;6.32;;;5.82;;
7887;SDS011;3989;48.810;9.208;2022-07-25T10:55:38;5.88;;;5.47;;
7887;SDS011;3989;48.810;9.208;2022-07-25T10:58:06;6.20;;;5.70;;
7887;SDS011;3989;48.810;9.208;2022-07-25T11:00:33;5.55;;;5.25;;
7887;SDS011;3989;48.810;9.208;2022-07-25T11:03:07;6.50;;;6.10;;
7887;SDS011;3989;48.810;9.208;2022-07-25T11:05:44;6.25;;;5.85;;
7887;SDS011;3989;48.810;9.208;2022-07-25T11:08:28;7.75;;;5.70;;
7887;SDS011;3989;48.810;9.208;2022-07-25T11:10:56;6.28;;;5.88;;
7887;SDS011;3989;48.810;9.208;2022-07-25T11:13:24;6.00;;;5.60;;
7887;SDS011;3989;48.810;9.208;2022-07-25T11:15:50;6.50;;;5.90;;
7887;SDS011;3989;48.810;9.208;2022-07-25T11:18:29;5.90;;;5.50;;
7887;SDS011;3989;48.810;9.208;2022-07-25T11:20:57;6.50;;;5.85;;
7887;SDS011;3989;48.810;9.208;2022-07-25T11:23:24;6.35;;;5.50;;
7887;SDS011;3989;48.810;9.208;2022-07-25T11:25:51;6.03;;;5.63;;
7887;SDS011;3989;48.810;9.208;2022-07-25T11:28:18;5.72;;;5.43;;
7887;SDS011;3989;48.810;9.208;2022-07-25T11:30:46;5.60;;;5.20;;
7887;SDS011;3989;48.810;9.208;2022-07-25T11:33:12;6.03;;;5.53;;
7887;SDS011;3989;48.810;9.208;2022-07-25T11:35:41;5.53;;;5.13;;
7887;SDS011;3989;48.810;9.208;2022-07-25T11:38:11;5.60;;;5.20;;
7887;SDS011;3989;48.810;9.208;2022-07-25T11:40:41;5.97;;;5.53;;
7887;SDS011;3989;48.810;9.208;2022-07-25T11:43:17;5.30;;;5.00;;
7887;SDS011;3989;48.810;9.208;2022-07-25T11:45:54;5.00;;;4.70;;
7887;SDS011;3989;48.810;9.208;2022-07-25T11:48:28;5.82;;;5.07;;
7887;SDS011;3989;48.810;9.208;2022-07-25T11:50:56;5.32;;;4.85;;
7887;SDS011;3989;48.810;9.208;2022-07-25T11:53:23;5.75;;;5.35;;
7887;SDS011;3989;48.810;9.208;2022-07-25T11:55:50;5.38;;;5.00;;
7887;SDS011;3989;48.810;9.208;2022-07-25T11:58:17;5.47;;;5.18;;
7887;SDS011;3989;48.810;9.208;2022-07-25T12:00:44;5.63;;;5.32;;
7887;SDS011;3989;48.810;9.208;2022-07-25T12:03:14;5.45;;;5.10;;
7887;SDS011;3989;48.810;9.208;2022-07-25T12:05:44;5.10;;;4.80;;
7887;SDS011;3989;48.810;9.208;2022-07-25T12:08:12;5.35;;;4.85;;
7887;SDS011;3989;48.810;9.208;2022-07-25T12:10:40;5.63;;;5.22;;
7887;SDS011;3989;48.810;9.208;2022-07-25T12:13:07;5.40;;;4.90;;
7887;SDS011;3989;48.810;9.208;2022-07-25T12:15:35;5.15;;;4.85;;
7887;SDS011;3989;48.810;9.208;2022-07-25T12:18:04;4.82;;;4.53;;
7887;SDS011;3989;48.810;9.208;2022-07-25T12:20:34;4.72;;;4.53;;
7887;SDS011;3989;48.810;9.208;2022-07-25T12:23:04;5.40;;;5.00;;
7887;SDS011;3989;48.810;9.208;2022-07-25T12:25:34;5.10;;;4.70;;
7887;SDS011;3989;48.810;9.208;2022-07-25T12:28:01;4.50;;;4.28;;
7887;SDS011;3989;48.810;9.208;2022-07-25T12:30:29;5.10;;;4.78;;
7887;SDS011;3989;48.810;9.208;2022-07-25T12:32:56;5.18;;;4.68;;
7887;SDS011;3989;48.810;9.208;2022-07-25T12:35:25;5.10;;;4.80;;
7887;SDS011;3989;48.810;9.208;2022-07-25T12:37:53;5.35;;;4.93;;
7887;SDS011;3989;48.810;9.208;2022-07-25T12:40:20;5.00;;;4.65;;
7887;SDS011;3989;48.810;9.208;2022-07-25T12:42:47;5.78;;;5.25;;
7887;SDS011;3989;48.810;9.208;2022-07-25T12:45:14;5.05;;;4.70;;
7887;SDS011;3989;48.810;9.208;2022-07-25T12:47:41;4.78;;;4.50;;
7887;SDS011;3989;48.810;9.208;2022-07-25T12:50:09;5.13;;;4.72;;
7887;SDS011;3989;48.810;9.208;2022-07-25T12:52:37;5.60;;;5.10;;
7887;SDS011;3989;48.810;9.208;2022-07-25T12:55:05;5.57;;;5.18;;
7887;SDS011;3989;48.810;9.208;2022-07-25T12:57:33;5.13;;;4.82;;
7887;SDS011;3989;48.810;9.208;2022-07-25T13:00:00;5.20;;;4.90;;
7887;SDS011;3989;48.810;9.208;2022-07-25T13:02:27;5.43;;;5.10;;
7887;SDS011;3989;48.810;9.208;2022-07-25T13:04:54;5.22;;;4.93;;
7887;SDS011;3989;48.810;9.208;2022-07-25T13:07:21;5.75;;;5.18;;
7887;SDS011;3989;48.810;9.208;2022-07-25T13:09:49;4.88;;;4.57;;
7887;SDS011;3989;48.810;9.208;2022-07-25T13:12:15;5.05;;;4.75;;
7887;SDS011;3989;48.810;9.208;2022-07-25T13:14:42;5.50;;;5.00;;
7887;SDS011;3989;48.810;9.208;2022-07-25T13:17:09;4.93;;;4.63;;
7887;SDS011;3989;48.810;9.208;2022-07-25T13:19:36;4.90;;;4.60;;
7887;SDS011;3989;48.810;9.208;2022-07-25T13:22:02;5.32;;;4.97;;
7887;SDS011;3989;48.810;9.208;2022-07-25T13:24:29;5.68;;;5.20;;
7887;SDS011;3989;48.810;9.208;2022-07-25T13:26:59;4.63;;;4.43;;
7887;SDS011;3989;48.810;9.208;2022-07-25T13:29:28;5.10;;;4.80;;
7887;SDS011;3989;48.810;9.208;2022-07-25T13:31:54;5.57;;;5.28;;
7887;SDS011;3989;48.810;9.208;2022-07-25T13:34:21;5.95;;;5.55;;
7887;SDS011;3989;48.810;9.208;2022-07-25T13:36:48;5.78;;;5.38;;
7887;SDS011;3989;48.810;9.208;2022-07-25T13:39:14;5.72;;;5.32;;
7887;SDS011;3989;48.810;9.208;2022-07-25T13:41:41;5.70;;;5.30;;
7887;SDS011;3989;48.810;9.208;2022-07-25T13:44:09;4.85;;;4.65;;
7887;SDS011;3989;48.810;9.208;2022-07-25T13:46:37;5.72;;;5.20;;
7887;SDS011;3989;48.810;9.208;2022-07-25T13:49:04;5.80;;;5.38;;
7887;SDS011;3989;48.810;9.208;2022-07-25T13:51:31;4.90;;;4.45;;
7887;SDS011;3989;48.810;9.208;2022-07-25T13:53:57;4.82;;;4.45;;
7887;SDS011;3989;48.810;9.208;2022-07-25T13:56:24;4.75;;;4.43;;
7887;SDS011;3989;48.810;9.208;2022-07-25T13:58:50;4.88;;;4.47;;
7887;SDS011;3989;48.810;9.208;2022-07-25T14:01:18;4.60;;;4.20;;
7887;SDS011;3989;48.810;9.208;2022-07-25T14:03:45;5.18;;;4.78;;
7887;SDS011;3989;48.810;9.208;2022-07-25T14:06:12;5.03;;;4.63;;
7887;SDS011;3989;48.810;9.208;2022-07-25T14:08:38;5.00;;;4.70;;
7887;SDS011;3989;48.810;9.208;2022-07-25T14:11:05;4.88;;;4.57;;
7887;SDS011;3989;48.810;9.208;2022-07-25T14:13:32;5.68;;;5.20;;
7887;SDS011;3989;48.810;9.208;2022-07-25T14:15:59;5.28;;;4.97;;
7887;SDS011;3989;48.810;9.208;2022-07-25T14:18:27;5.55;;;5.25;;
7887;SDS011;3989;48.810;9.208;2022-07-25T14:20:54;5.43;;;4.93;;
7887;SDS011;3989;48.810;9.208;2022-07-25T14:23:21;5.30;;;5.00;;
7887;SDS011;3989;48.810;9.208;2022-07-25T14:25:48;6.35;;;4.88;;
7887;SDS011;3989;48.810;9.208;2022-07-25T14:28:14;5.45;;;5.15;;
7887;SDS011;3989;48.810;9.208;2022-07-25T14:30:41;5.82;;;5.32;;
7887;SDS011;3989;48.810;9.208;2022-07-25T14:33:08;6.05;;;5.65;;
7887;SDS011;3989;48.810;9.208;2022-07-25T14:35:36;6.25;;;5.78;;
7887;SDS011;3989;48.810;9.208;2022-07-25T14:38:02;6.10;;;5.53;;
7887;SDS011;3989;48.810;9.208;2022-07-25T14:40:30;6.03;;;5.43;;
7887;SDS011;3989;48.810;9.208;2022-07-25T14:42:56;6.70;;;5.80;;
7887;SDS011;3989;48.810;9.208;2022-07-25T14:45:23;6.18;;;5.78;;
7887;SDS011;3989;48.810;9.208;2022-07-25T14:47:50;6.07;;;5.68;;
7887;SDS011;3989;48.810;9.208;2022-07-25T14:50:16;5.90;;;5.50;;
7887;SDS011;3989;48.810;9.208;2022-07-25T14:52:44;5.70;;;5.30;;
7887;SDS011;3989;48.810;9.208;2022-07-25T14:55:11;6.43;;;6.03;;
7887;SDS011;3989;48.810;9.208;2022-07-25T14:57:37;6.18;;;5.75;;
7887;SDS011;3989;48.810;9.208;2022-07-25T15:00:04;6.15;;;5.75;;
7887;SDS011;3989;48.810;9.208;2022-07-25T15:02:32;6.38;;;5.88;;
7887;SDS011;3989;48.810;9.208;2022-07-25T15:04:58;6.65;;;5.85;;
7887;SDS011;3989;48.810;9.208;2022-07-25T15:07:25;5.65;;;5.30;;
7887;SDS011;3989;48.810;9.208;2022-07-25T15:09:52;6.13;;;5.72;;
7887;SDS011;3989;48.810;9.208;2022-07-25T15:12:19;6.13;;;5.65;;
7887;SDS011;3989;48.810;9.208;2022-07-25T15:14:46;6.22;;;5.82;;
7887;SDS011;3989;48.810;9.208;2022-07-25T15:17:12;5.03;;;4.72;;